createdAt,value
2022-12-01T00:00:01.440Z,99359.72
2022-12-01T00:02:33.360Z,99360.22
2022-12-01T00:05:03.252Z,99362.44
2022-12-01T00:07:32.365Z,99367.38
2022-12-01T00:10:19.188Z,99365.00
2022-12-01T00:12:48.018Z,99369.63
2022-12-01T00:15:16.889Z,99360.28
2022-12-01T00:17:46.528Z,99348.63
2022-12-01T00:20:17.102Z,99357.25
2022-12-01T00:22:48.400Z,99353.22
2022-12-01T00:25:19.784Z,99353.38
2022-12-01T00:27:51.290Z,99361.13
2022-12-01T00:30:22.018Z,99350.06
2022-12-01T00:32:50.877Z,99346.25
2022-12-01T00:35:19.685Z,99342.47
2022-12-01T00:37:48.495Z,99348.72
2022-12-01T00:40:19.005Z,99351.78
2022-12-01T00:42:47.770Z,99354.03
2022-12-01T00:45:16.534Z,99347.91
2022-12-01T00:47:45.357Z,99361.13
2022-12-01T00:50:14.106Z,99360.34
2022-12-01T00:52:43.088Z,99363.84
2022-12-01T00:55:11.924Z,99369.19
2022-12-01T00:57:40.712Z,99375.09
2022-12-01T01:00:10.126Z,99382.81
2022-12-01T01:02:41.205Z,99391.31
2022-12-01T01:05:10.612Z,99385.84
2022-12-01T01:07:39.770Z,99390.59
2022-12-01T01:10:09.978Z,99386.00
2022-12-01T01:12:39.720Z,99390.75
2022-12-01T01:15:08.987Z,99383.72
2022-12-01T01:17:38.207Z,99386.44
2022-12-01T01:20:07.762Z,99384.50
2022-12-01T01:22:37.014Z,99376.50
2022-12-01T01:25:06.214Z,99382.09
2022-12-01T01:27:35.780Z,99384.09
2022-12-01T01:30:05.986Z,99379.66
2022-12-01T01:32:35.340Z,99382.13
2022-12-01T01:35:04.222Z,99373.94
2022-12-01T01:37:33.060Z,99373.41
2022-12-01T01:40:01.818Z,99372.88
2022-12-01T01:42:30.681Z,99380.75
2022-12-01T01:45:00.375Z,99381.75
2022-12-01T01:47:36.245Z,99368.81
2022-12-01T01:50:11.806Z,99372.38
2022-12-01T01:52:47.282Z,99382.03
2022-12-01T01:55:17.053Z,99375.16
2022-12-01T01:57:47.015Z,99367.28
2022-12-01T02:00:19.793Z,99363.13
2022-12-01T02:02:50.515Z,99378.56
2022-12-01T02:05:35.189Z,99378.69
2022-12-01T02:08:05.250Z,99359.03
2022-12-01T02:10:39.893Z,99375.84
2022-12-01T02:13:26.758Z,99385.38
2022-12-01T02:16:15.664Z,99386.81
2022-12-01T02:19:05.757Z,99387.69
2022-12-01T02:21:37.959Z,99393.25
2022-12-01T02:24:43.587Z,99392.16
2022-12-01T02:27:49.326Z,99388.81
2022-12-01T02:30:37.073Z,99396.28
2022-12-01T02:33:24.168Z,99390.47
2022-12-01T02:36:11.612Z,99387.13
2022-12-01T02:38:58.004Z,99398.41
2022-12-01T02:41:31.593Z,99393.63
2022-12-01T02:44:12.259Z,99400.25
2022-12-01T02:46:46.939Z,99393.50
2022-12-01T02:49:21.820Z,99392.66
2022-12-01T02:51:53.558Z,99397.81
2022-12-01T02:54:23.362Z,99393.66
2022-12-01T02:56:55.973Z,99395.06
2022-12-01T02:59:25.134Z,99391.19
2022-12-01T03:02:19.394Z,99391.44
2022-12-01T03:04:51.582Z,99390.22
2022-12-01T03:07:44.712Z,99395.75
2022-12-01T03:10:34.977Z,99390.28
2022-12-01T03:13:25.265Z,99390.66
2022-12-01T03:15:57.259Z,99391.78
2022-12-01T03:18:29.142Z,99396.16
2022-12-01T03:21:14.676Z,99395.56
2022-12-01T03:23:52.926Z,99396.72
2022-12-01T03:26:25.934Z,99395.06
2022-12-01T03:29:07.775Z,99408.47
2022-12-01T03:31:43.442Z,99413.22
2022-12-01T03:34:34.893Z,99407.41
2022-12-01T03:37:10.363Z,99409.22
2022-12-01T03:39:40.987Z,99392.81
2022-12-01T03:42:24.433Z,99386.69
2022-12-01T03:44:57.688Z,99380.63
2022-12-01T03:47:33.020Z,99394.22
2022-12-01T03:50:04.240Z,99403.13
2022-12-01T03:52:42.616Z,99419.00
2022-12-01T03:55:14.442Z,99424.81
2022-12-01T03:58:21.985Z,99430.13
2022-12-01T04:00:58.871Z,99428.69
2022-12-01T04:03:27.893Z,99425.84
2022-12-01T04:06:01.070Z,99420.13
2022-12-01T04:08:31.496Z,99423.91
2022-12-01T04:11:00.961Z,99425.97
2022-12-01T04:13:29.889Z,99428.69
2022-12-01T04:15:58.689Z,99434.69
2022-12-01T04:18:27.677Z,99438.03
2022-12-01T04:20:56.413Z,99439.09
2022-12-01T04:23:43.750Z,99436.72
2022-12-01T04:26:15.764Z,99445.94
2022-12-01T04:28:44.940Z,99439.69
2022-12-01T04:31:13.773Z,99443.63
2022-12-01T04:33:42.802Z,99443.75
2022-12-01T04:36:12.001Z,99443.38
2022-12-01T04:38:40.852Z,99434.22
2022-12-01T04:41:11.212Z,99441.81
2022-12-01T04:43:40.267Z,99439.44
2022-12-01T04:46:09.822Z,99447.31
2022-12-01T04:48:40.055Z,99441.66
2022-12-01T04:51:10.135Z,99443.50
2022-12-01T04:53:38.996Z,99451.25
2022-12-01T04:56:08.151Z,99451.44
2022-12-01T04:58:38.773Z,99440.06
2022-12-01T05:01:11.231Z,99435.13
2022-12-01T05:03:42.280Z,99445.16
2022-12-01T05:06:20.633Z,99442.25
2022-12-01T05:08:50.594Z,99448.31
2022-12-01T05:11:19.974Z,99461.59
2022-12-01T05:13:49.943Z,99452.81
2022-12-01T05:16:27.884Z,99454.13
2022-12-01T05:19:17.755Z,99450.97
2022-12-01T05:21:48.516Z,99452.81
2022-12-01T05:24:18.388Z,99461.47
2022-12-01T05:26:47.653Z,99468.59
2022-12-01T05:29:16.673Z,99469.38
2022-12-01T05:31:47.346Z,99472.41
2022-12-01T05:34:16.330Z,99476.97
2022-12-01T05:36:45.101Z,99479.25
2022-12-01T05:39:14.076Z,99475.19
2022-12-01T05:41:42.823Z,99481.38
2022-12-01T05:44:11.577Z,99479.97
2022-12-01T05:46:40.327Z,99474.50
2022-12-01T05:49:09.186Z,99476.09
2022-12-01T05:51:38.081Z,99476.09
2022-12-01T05:54:07.796Z,99475.66
2022-12-01T05:56:36.854Z,99470.44
2022-12-01T05:59:05.943Z,99466.56
2022-12-01T06:01:34.801Z,99472.56
2022-12-01T06:04:03.690Z,99464.81
2022-12-01T06:06:35.384Z,99467.38
2022-12-01T06:09:04.571Z,99470.38
2022-12-01T06:11:34.585Z,99464.47
2022-12-01T06:14:03.838Z,99470.28
2022-12-01T06:16:32.686Z,99474.69
2022-12-01T06:19:01.665Z,99468.06
2022-12-01T06:21:30.423Z,99474.84
2022-12-01T06:23:59.986Z,99477.84
2022-12-01T06:26:29.204Z,99475.09
2022-12-01T06:28:58.267Z,99469.22
2022-12-01T06:31:27.142Z,99464.81
2022-12-01T06:33:55.892Z,99473.09
2022-12-01T06:36:24.909Z,99462.53
2022-12-01T06:38:53.737Z,99467.44
2022-12-01T06:41:22.694Z,99464.28
2022-12-01T06:43:51.455Z,99474.59
2022-12-01T06:46:20.415Z,99477.22
2022-12-01T06:48:49.995Z,99485.41
2022-12-01T06:51:21.839Z,99482.69
2022-12-01T06:54:02.141Z,99484.09
2022-12-01T06:56:34.049Z,99489.56
2022-12-01T06:59:02.920Z,99491.84
2022-12-01T07:01:32.181Z,99494.56
2022-12-01T07:04:00.928Z,99495.19
2022-12-01T07:06:32.237Z,99502.81
2022-12-01T07:09:01.028Z,99491.31
2022-12-01T07:11:32.881Z,99495.13
2022-12-01T07:14:01.729Z,99492.41
2022-12-01T07:16:30.765Z,99497.06
2022-12-01T07:19:00.753Z,99507.59
2022-12-01T07:21:29.560Z,99494.38
2022-12-01T07:23:58.395Z,99495.88
2022-12-01T07:26:27.489Z,99494.09
2022-12-01T07:28:56.248Z,99479.81
2022-12-01T07:31:25.659Z,99481.06
2022-12-01T07:33:54.732Z,99477.47
2022-12-01T07:36:24.385Z,99464.59
2022-12-01T07:38:53.284Z,99464.78
2022-12-01T07:41:22.038Z,99462.25
2022-12-01T07:43:52.246Z,99460.03
2022-12-01T07:46:24.328Z,99455.84
2022-12-01T07:48:55.185Z,99455.22
2022-12-01T07:51:25.655Z,99449.13
2022-12-01T07:53:55.590Z,99453.22
2022-12-01T07:56:25.165Z,99449.09
2022-12-01T07:58:53.958Z,99448.47
2022-12-01T08:01:25.526Z,99443.00
2022-12-01T08:03:57.407Z,99442.88
2022-12-01T08:06:27.944Z,99436.50
2022-12-01T08:08:57.300Z,99440.56
2022-12-01T08:11:30.032Z,99440.44
2022-12-01T08:13:59.441Z,99436.16
2022-12-01T08:16:28.580Z,99441.06
2022-12-01T08:18:57.398Z,99436.41
2022-12-01T08:21:26.432Z,99442.03
2022-12-01T08:23:56.942Z,99438.50
2022-12-01T08:26:27.125Z,99442.53
2022-12-01T08:28:56.510Z,99453.13
2022-12-01T08:31:28.971Z,99441.34
2022-12-01T08:33:58.485Z,99439.78
2022-12-01T08:36:27.251Z,99443.41
2022-12-01T08:38:56.805Z,99437.00
2022-12-01T08:41:26.243Z,99442.81
2022-12-01T08:43:58.462Z,99449.47
2022-12-01T08:46:36.251Z,99440.94
2022-12-01T08:49:05.571Z,99439.34
2022-12-01T08:51:34.648Z,99437.78
2022-12-01T08:54:03.571Z,99432.47
2022-12-01T08:56:39.253Z,99433.59
2022-12-01T08:59:08.961Z,99433.78
2022-12-01T09:02:00.423Z,99436.25
2022-12-01T09:04:31.399Z,99440.81
2022-12-01T09:07:00.732Z,99441.41
2022-12-01T09:09:30.345Z,99441.31
2022-12-01T09:11:59.287Z,99442.16
2022-12-01T09:14:28.906Z,99445.56
2022-12-01T09:16:58.002Z,99436.66
2022-12-01T09:19:29.409Z,99430.31
2022-12-01T09:21:58.632Z,99431.69
2022-12-01T09:24:27.375Z,99428.03
2022-12-01T09:26:58.282Z,99428.88
2022-12-01T09:29:27.475Z,99420.16
2022-12-01T09:31:58.008Z,99422.88
2022-12-01T09:34:27.698Z,99429.38
2022-12-01T09:36:59.066Z,99431.81
2022-12-01T09:39:28.918Z,99435.19
2022-12-01T09:42:09.483Z,99443.81
2022-12-01T09:44:48.590Z,99452.25
2022-12-01T09:47:34.911Z,99453.66
2022-12-01T09:50:14.767Z,99454.75
2022-12-01T09:53:07.628Z,99455.41
2022-12-01T09:55:37.057Z,99449.34
2022-12-01T09:58:15.021Z,99445.63
2022-12-01T10:00:47.245Z,99449.19
2022-12-01T10:03:34.286Z,99453.94
2022-12-01T10:09:07.321Z,99463.84
2022-12-01T10:11:41.183Z,99474.19
2022-12-01T10:14:20.419Z,99471.88
2022-12-01T10:16:56.693Z,99474.84
2022-12-01T10:19:39.992Z,99476.44
2022-12-01T10:22:26.759Z,99471.59
2022-12-01T10:25:02.844Z,99469.44
2022-12-01T10:27:49.102Z,99467.63
2022-12-01T10:30:20.604Z,99470.00
2022-12-01T10:32:57.012Z,99470.81
2022-12-01T10:35:36.902Z,99473.13
2022-12-01T10:38:08.352Z,99468.59
2022-12-01T10:40:38.578Z,99475.84
2022-12-01T10:43:10.822Z,99469.00
2022-12-01T10:45:44.878Z,99481.31
2022-12-01T10:48:24.113Z,99470.59
2022-12-01T10:51:14.564Z,99470.31
2022-12-01T10:53:43.405Z,99470.59
2022-12-01T10:56:15.253Z,99470.34
2022-12-01T10:58:48.877Z,99476.38
2022-12-01T11:01:26.592Z,99479.13
2022-12-01T11:04:08.788Z,99489.66
2022-12-01T11:06:38.912Z,99485.34
2022-12-01T11:09:26.022Z,99481.31
2022-12-01T11:12:01.468Z,99480.22
2022-12-01T11:14:50.626Z,99478.59
2022-12-01T11:17:34.279Z,99485.34
2022-12-01T11:20:22.851Z,99480.78
2022-12-01T11:22:51.738Z,99480.84
2022-12-01T11:25:22.794Z,99478.53
2022-12-01T11:27:58.381Z,99475.09
2022-12-01T11:30:30.311Z,99475.09
2022-12-01T11:33:05.320Z,99472.34
2022-12-01T11:35:38.983Z,99474.53
2022-12-01T11:40:59.522Z,99481.22
2022-12-01T11:43:39.970Z,99478.94
2022-12-01T11:46:10.902Z,99488.16
2022-12-01T11:48:39.865Z,99488.06
2022-12-01T11:51:21.659Z,99490.16
2022-12-01T11:53:50.765Z,99492.91
2022-12-01T11:56:26.017Z,99499.38
2022-12-01T11:59:05.691Z,99499.06
2022-12-01T12:02:05.276Z,99502.63
2022-12-01T12:05:08.035Z,99496.19
2022-12-01T12:08:09.124Z,99503.44
2022-12-01T12:11:13.682Z,99498.88
2022-12-01T12:13:45.594Z,99496.41
2022-12-01T12:16:22.635Z,99504.31
2022-12-01T12:19:00.667Z,99509.00
2022-12-01T12:21:35.109Z,99509.28
2022-12-01T12:24:11.165Z,99511.84
2022-12-01T12:27:11.931Z,99508.34
2022-12-01T12:29:58.099Z,99513.56
2022-12-01T12:32:39.553Z,99518.09
2022-12-01T12:35:37.455Z,99519.00
2022-12-01T12:38:40.129Z,99522.19
2022-12-01T12:41:25.052Z,99525.44
2022-12-01T12:44:36.576Z,99529.22
2022-12-01T12:47:31.188Z,99535.38
2022-12-01T12:50:27.761Z,99542.56
2022-12-01T12:53:02.446Z,99550.84
2022-12-01T12:55:41.850Z,99547.88
2022-12-01T12:58:20.519Z,99558.88
2022-12-01T13:01:00.166Z,99557.06
2022-12-01T13:03:47.461Z,99556.88
2022-12-01T13:06:19.299Z,99553.84
2022-12-01T13:08:54.094Z,99555.06
2022-12-01T13:11:36.565Z,99562.84
2022-12-01T13:14:18.416Z,99568.63
2022-12-01T13:17:34.385Z,99569.09
2022-12-01T13:20:08.809Z,99579.69
2022-12-01T13:22:38.711Z,99581.13
2022-12-01T13:25:08.523Z,99596.78
2022-12-01T13:27:42.270Z,99601.97
2022-12-01T13:30:24.218Z,99602.84
2022-12-01T13:33:05.341Z,99603.28
2022-12-01T13:35:39.716Z,99609.09
2022-12-01T13:38:39.566Z,99609.09
2022-12-01T13:41:21.434Z,99606.91
2022-12-01T13:44:07.723Z,99604.00
2022-12-01T13:46:45.288Z,99601.75
2022-12-01T13:49:34.621Z,99613.56
2022-12-01T13:52:28.998Z,99620.63
2022-12-01T13:55:10.029Z,99625.59
2022-12-01T13:58:14.947Z,99635.81
2022-12-01T14:00:44.162Z,99640.56
2022-12-01T14:03:22.033Z,99643.28
2022-12-01T14:05:57.737Z,99655.13
2022-12-01T14:08:30.225Z,99650.16
2022-12-01T14:11:24.582Z,99658.81
2022-12-01T14:14:12.961Z,99665.03
2022-12-01T14:16:59.953Z,99674.00
2022-12-01T14:19:45.848Z,99680.28
2022-12-01T14:22:48.335Z,99688.81
2022-12-01T14:25:23.358Z,99685.81
2022-12-01T14:27:55.425Z,99690.84
2022-12-01T14:30:42.826Z,99698.66
2022-12-01T14:33:45.901Z,99700.63
2022-12-01T14:36:42.205Z,99708.00
2022-12-01T14:39:21.052Z,99708.44
2022-12-01T14:43:07.784Z,99716.31
2022-12-01T14:45:56.291Z,99728.34
2022-12-01T14:48:39.025Z,99731.09
2022-12-01T14:51:29.090Z,99729.75
2022-12-01T14:53:59.489Z,99738.81
2022-12-01T14:56:29.537Z,99740.88
2022-12-01T14:59:01.432Z,99752.03
2022-12-01T15:01:37.442Z,99744.19
2022-12-01T15:04:07.661Z,99755.91
2022-12-01T15:06:38.488Z,99746.13
2022-12-01T15:09:35.503Z,99752.03
2022-12-01T15:12:10.017Z,99744.28
2022-12-01T15:14:50.850Z,99754.31
2022-12-01T15:17:38.491Z,99755.09
2022-12-01T15:20:26.947Z,99752.28
2022-12-01T15:22:57.432Z,99768.19
2022-12-01T15:25:30.270Z,99763.19
2022-12-01T15:28:23.047Z,99769.44
2022-12-01T15:30:56.333Z,99774.13
2022-12-01T15:33:37.534Z,99777.09
2022-12-01T15:36:08.861Z,99773.69
2022-12-01T15:38:39.851Z,99786.63
2022-12-01T15:41:32.711Z,99780.50
2022-12-01T15:44:04.256Z,99786.28
2022-12-01T15:46:35.327Z,99789.09
2022-12-01T15:49:20.175Z,99795.69
2022-12-01T15:51:51.144Z,99793.31
2022-12-01T15:54:28.301Z,99790.25
2022-12-01T15:56:59.865Z,99795.47
2022-12-01T15:59:42.586Z,99801.06
2022-12-01T16:02:14.450Z,99807.28
2022-12-01T16:04:44.430Z,99818.44
2022-12-01T16:07:15.202Z,99811.41
2022-12-01T16:09:57.209Z,99816.38
2022-12-01T16:12:38.696Z,99815.00
2022-12-01T16:15:19.583Z,99822.06
2022-12-01T16:17:53.687Z,99824.56
2022-12-01T16:20:34.227Z,99833.22
2022-12-01T16:23:06.290Z,99822.03
2022-12-01T16:25:43.018Z,99825.69
2022-12-01T16:28:38.241Z,99825.25
2022-12-01T16:31:14.007Z,99834.16
2022-12-01T16:33:44.614Z,99835.28
2022-12-01T16:36:15.394Z,99830.03
2022-12-01T16:38:44.243Z,99839.38
2022-12-01T16:41:41.384Z,99847.09
2022-12-01T16:44:28.647Z,99857.88
2022-12-01T16:46:58.115Z,99864.88
2022-12-01T16:49:26.949Z,99869.84
2022-12-01T16:51:57.100Z,99874.84
2022-12-01T16:54:26.740Z,99883.94
2022-12-01T16:56:55.694Z,99895.22
2022-12-01T16:59:24.548Z,99899.44
2022-12-01T17:01:54.156Z,99907.06
2022-12-01T17:04:26.372Z,99910.09
2022-12-01T17:06:55.626Z,99910.25
2022-12-01T17:09:24.758Z,99912.63
2022-12-01T17:11:53.847Z,99921.16
2022-12-01T17:14:22.969Z,99923.31
2022-12-01T17:16:51.906Z,99918.09
2022-12-01T17:19:20.778Z,99929.25
2022-12-01T17:21:49.611Z,99933.78
2022-12-01T17:24:19.407Z,99932.63
2022-12-01T17:26:48.404Z,99937.19
2022-12-01T17:29:17.297Z,99937.66
2022-12-01T17:31:46.039Z,99947.22
2022-12-01T17:34:15.178Z,99944.03
2022-12-01T17:36:44.142Z,99945.41
2022-12-01T17:39:12.965Z,99953.81
2022-12-01T17:41:42.939Z,99951.56
2022-12-01T17:44:13.362Z,99955.66
2022-12-01T17:46:45.379Z,99961.31
2022-12-01T17:49:15.380Z,99966.22
2022-12-01T17:51:44.631Z,99973.63
2022-12-01T17:54:13.648Z,99972.81
2022-12-01T17:56:43.580Z,99970.53
2022-12-01T17:59:12.896Z,99980.66
2022-12-01T18:01:43.993Z,99983.19
2022-12-01T18:04:12.947Z,99986.13
2022-12-01T18:06:42.003Z,99988.88
2022-12-01T18:09:10.955Z,99994.09
2022-12-01T18:11:41.828Z,99997.44
2022-12-01T18:14:10.709Z,99998.88
2022-12-01T18:16:39.903Z,100002.75
2022-12-01T18:19:09.899Z,100004.81
2022-12-01T18:21:39.350Z,100010.06
2022-12-01T18:24:11.984Z,100012.56
2022-12-01T18:26:41.943Z,100017.31
2022-12-01T18:29:27.082Z,100023.13
2022-12-01T18:31:58.725Z,100021.53
2022-12-01T18:34:30.807Z,100019.38
2022-12-01T18:36:59.684Z,100021.88
2022-12-01T18:39:28.572Z,100036.47
2022-12-01T18:41:57.716Z,100031.00
2022-12-01T18:44:26.580Z,100039.75
2022-12-01T18:46:55.570Z,100047.84
2022-12-01T18:49:24.622Z,100050.59
2022-12-01T18:51:53.658Z,100049.31
2022-12-01T18:54:22.857Z,100056.03
2022-12-01T18:56:57.153Z,100063.50
2022-12-01T18:59:27.819Z,100065.56
2022-12-01T19:01:56.845Z,100068.41
2022-12-01T19:04:26.562Z,100072.22
2022-12-01T19:06:56.078Z,100086.25
2022-12-01T19:09:25.684Z,100086.06
2022-12-01T19:12:00.574Z,100091.66
2022-12-01T19:14:30.548Z,100105.81
2022-12-01T19:17:02.413Z,100109.53
2022-12-01T19:19:41.759Z,100106.72
2022-12-01T19:22:44.454Z,100116.31
2022-12-01T19:25:48.568Z,100126.09
2022-12-01T19:28:17.811Z,100130.16
2022-12-01T19:30:48.387Z,100130.00
2022-12-01T19:33:17.717Z,100124.50
2022-12-01T19:35:46.870Z,100137.38
2022-12-01T19:38:15.734Z,100130.88
2022-12-01T19:40:45.279Z,100143.72
2022-12-01T19:43:14.785Z,100140.69
2022-12-01T19:45:43.740Z,100131.00
2022-12-01T19:48:12.910Z,100149.59
2022-12-01T19:50:41.735Z,100144.06
2022-12-01T19:53:11.789Z,100139.41
2022-12-01T19:55:40.750Z,100138.94
2022-12-01T19:58:09.525Z,100140.31
2022-12-01T20:00:39.158Z,100142.34
2022-12-01T20:03:08.113Z,100146.38
2022-12-01T20:05:36.885Z,100151.25
2022-12-01T20:08:06.045Z,100169.34
2022-12-01T20:10:35.649Z,100165.91
2022-12-01T20:13:04.532Z,100169.75
2022-12-01T20:15:34.221Z,100172.84
2022-12-01T20:18:03.387Z,100171.22
2022-12-01T20:20:32.162Z,100180.50
2022-12-01T20:23:01.159Z,100190.19
2022-12-01T20:25:30.094Z,100192.09
2022-12-01T20:27:58.921Z,100196.97
2022-12-01T20:30:27.840Z,100196.31
2022-12-01T20:32:56.749Z,100199.28
2022-12-01T20:35:25.618Z,100203.69
2022-12-01T20:37:54.799Z,100209.47
2022-12-01T20:40:23.689Z,100194.41
2022-12-01T20:42:52.485Z,100208.47
2022-12-01T20:45:21.380Z,100204.53
2022-12-01T20:47:50.228Z,100203.91
2022-12-01T20:50:19.120Z,100220.28
2022-12-01T20:52:47.985Z,100219.22
2022-12-01T20:55:16.762Z,100226.34
2022-12-01T20:57:45.693Z,100225.78
2022-12-01T21:00:15.093Z,100233.09
2022-12-01T21:02:44.437Z,100229.50
2022-12-01T21:05:13.541Z,100239.88
2022-12-01T21:07:42.436Z,100239.47
2022-12-01T21:10:14.534Z,100244.91
2022-12-01T21:13:08.767Z,100245.00
2022-12-01T21:16:01.838Z,100256.16
2022-12-01T21:19:01.023Z,100244.94
2022-12-01T21:21:32.320Z,100256.34
2022-12-01T21:24:23.327Z,100257.81
2022-12-01T21:26:59.866Z,100254.31
2022-12-01T21:29:38.760Z,100244.16
2022-12-01T21:32:20.154Z,100253.81
2022-12-01T21:34:49.888Z,100252.59
2022-12-01T21:37:24.735Z,100255.72
2022-12-01T21:39:57.157Z,100258.09
2022-12-01T21:42:32.530Z,100258.63
2022-12-01T21:45:02.572Z,100258.19
2022-12-01T21:47:31.974Z,100263.22
2022-12-01T21:50:10.045Z,100274.75
2022-12-01T21:52:43.884Z,100273.06
2022-12-01T21:55:15.890Z,100273.75
2022-12-01T21:57:46.080Z,100285.00
2022-12-01T22:00:31.485Z,100283.28
2022-12-01T22:03:10.592Z,100285.75
2022-12-01T22:06:13.462Z,100293.22
2022-12-01T22:08:41.241Z,100294.84
2022-12-01T22:11:10.123Z,100299.84
2022-12-01T22:14:04.886Z,100292.91
2022-12-01T22:16:41.521Z,100302.44
2022-12-01T22:19:16.401Z,100313.50
2022-12-01T22:26:20.087Z,100322.31
2022-12-01T22:28:54.487Z,100331.41
2022-12-01T22:31:24.181Z,100333.00
2022-12-01T22:34:03.259Z,100342.72
2022-12-01T22:36:34.281Z,100345.34
2022-12-01T22:39:07.755Z,100359.00
2022-12-01T22:41:37.003Z,100344.97
2022-12-01T22:44:06.035Z,100356.03
2022-12-01T22:46:40.625Z,100359.22
2022-12-01T22:49:20.281Z,100361.03
2022-12-01T22:51:56.939Z,100356.19
2022-12-01T22:54:39.316Z,100355.78
2022-12-01T22:57:32.318Z,100354.19
2022-12-01T23:00:24.534Z,100361.81
2022-12-01T23:02:55.919Z,100365.00
2022-12-01T23:05:31.395Z,100364.84
2022-12-01T23:08:00.556Z,100360.75
2022-12-01T23:10:35.655Z,100371.09
2022-12-01T23:13:22.807Z,100370.53
2022-12-01T23:15:56.660Z,100383.69
2022-12-01T23:18:32.822Z,100382.78
2022-12-01T23:21:02.885Z,100386.38
2022-12-01T23:23:37.406Z,100393.34
2022-12-01T23:26:08.933Z,100404.50
2022-12-01T23:28:39.821Z,100412.94
2022-12-01T23:31:10.488Z,100411.13
2022-12-01T23:33:39.659Z,100413.25
2022-12-01T23:36:17.192Z,100415.84
2022-12-01T23:38:52.913Z,100419.25
2022-12-01T23:41:49.221Z,100419.91
2022-12-01T23:44:39.757Z,100417.38
2022-12-01T23:47:30.132Z,100426.91
2022-12-01T23:50:03.788Z,100428.63
2022-12-01T23:52:37.753Z,100437.06
2022-12-01T23:55:18.174Z,100435.66
2022-12-01T23:57:47.413Z,100436.16
